Time;durP1;ratioP1;P1;durP2;ratioP2;P2;SDS_P1;SDS_P2;PMS_P1;PMS_P2;Temp;Humidity;BMP_temperature;BMP_pressure;BME280_temperature;BME280_humidity;BME280_pressure;Samples;Min_cycle;Max_cycle;Signal;HPM_P1;HPM_P2
2023/05/03 00:00:38;;;;;;;4.32;1.25;;;;;;;12.86;41.01;94193.41;5126435;28;20049;-82
2023/05/03 00:03:05;;;;;;;9.93;2.67;;;;;;;12.81;40.23;94194.34;5125907;28;20054;-82
2023/05/03 00:05:31;;;;;;;17.05;2.00;;;;;;;12.75;40.37;94192.19;5126197;28;20217;-81
2023/05/03 00:07:57;;;;;;;4.60;1.80;;;;;;;12.73;40.39;94191.72;5126162;28;20020;-81
2023/05/03 00:10:23;;;;;;;4.45;1.30;;;;;;;12.67;40.26;94195.66;5125888;28;20015;-82
2023/05/03 00:12:52;;;;;;;7.57;1.42;;;;;;;12.57;40.27;94197.53;5126089;28;20323;-82
2023/05/03 00:15:17;;;;;;;7.53;1.55;;;;;;;12.54;40.80;94200.09;5124753;28;20027;-83
2023/05/03 00:17:42;;;;;;;6.93;1.58;;;;;;;12.46;40.45;94196.31;5125131;28;20325;-82
2023/05/03 00:20:08;;;;;;;7.07;1.55;;;;;;;12.41;40.75;94194.56;5124654;28;20282;-82
2023/05/03 00:22:35;;;;;;;10.43;1.70;;;;;;;12.38;40.93;94197.09;5125609;28;20031;-82
2023/05/03 00:25:01;;;;;;;5.30;1.58;;;;;;;12.36;41.15;94207.34;5125794;28;20023;-82
2023/05/03 00:27:27;;;;;;;5.72;1.58;;;;;;;12.33;41.26;94200.72;5125999;28;20090;-81
2023/05/03 00:29:52;;;;;;;5.32;1.70;;;;;;;12.33;41.34;94208.72;5125322;28;20317;-79
2023/05/03 00:32:21;;;;;;;12.18;1.63;;;;;;;12.29;41.33;94212.34;5125871;28;20026;-79
2023/05/03 00:34:56;;;;;;;7.05;1.50;;;;;;;12.30;41.42;94208.59;5125886;28;20015;-78
2023/05/03 00:37:23;;;;;;;3.78;2.03;;;;;;;12.28;41.02;94205.44;5125624;28;20028;-78
2023/05/03 00:39:49;;;;;;;5.63;1.52;;;;;;;12.26;41.23;94199.63;5125423;28;20019;-79
2023/05/03 00:42:14;;;;;;;12.02;1.63;;;;;;;12.18;41.29;94209.22;5125484;28;20026;-78
2023/05/03 00:44:40;;;;;;;4.28;1.55;;;;;;;12.14;41.36;94209.03;5124840;28;20030;-78
2023/05/03 00:47:05;;;;;;;5.60;1.70;;;;;;;12.04;41.44;94209.34;5125326;28;20039;-79
2023/05/03 00:49:32;;;;;;;10.45;1.80;;;;;;;12.03;41.55;94205.91;5124381;28;20026;-81
2023/05/03 00:51:58;;;;;;;6.70;1.60;;;;;;;11.99;41.62;94210.31;5125133;28;20015;-80
2023/05/03 00:54:26;;;;;;;2.70;1.70;;;;;;;11.99;41.80;94210.31;5125111;28;20026;-80
2023/05/03 00:56:52;;;;;;;3.50;1.90;;;;;;;11.96;41.65;94202.91;5125096;28;20022;-80
2023/05/03 00:59:19;;;;;;;12.75;2.15;;;;;;;11.98;40.99;94218.63;5125368;28;20086;-80
2023/05/03 01:01:51;;;;;;;2.90;1.13;;;;;;;11.95;40.90;94204.00;5124652;28;20044;-81
2023/05/03 01:04:19;;;;;;;6.68;1.90;;;;;;;11.92;41.16;94204.63;5106391;28;20325;-81
2023/05/03 01:06:51;;;;;;;6.90;1.63;;;;;;;11.94;41.38;94196.31;5124747;28;20056;-81
2023/05/03 01:09:32;;;;;;;2.25;1.30;;;;;;;11.91;41.43;94199.63;5124947;28;20401;-81
2023/05/03 01:12:36;;;;;;;6.22;1.65;;;;;;;11.86;41.48;94192.50;5124659;28;20024;-81
2023/05/03 01:15:11;;;;;;;5.70;1.77;;;;;;;11.83;41.56;94196.56;5105995;28;20317;-82
2023/05/03 01:17:49;;;;;;;4.95;2.15;;;;;;;11.82;41.42;94196.88;5124814;28;20024;-81
2023/05/03 01:20:20;;;;;;;5.63;1.42;;;;;;;11.83;41.28;94185.91;5124443;28;20026;-82
2023/05/03 01:22:55;;;;;;;8.23;1.65;;;;;;;11.79;41.55;94174.25;5124376;28;20369;-82
2023/05/03 01:25:21;;;;;;;4.63;1.40;;;;;;;11.81;41.51;94181.97;5124562;28;20095;-81
2023/05/03 01:27:46;;;;;;;8.23;1.67;;;;;;;11.80;41.25;94183.06;5106370;28;20023;-81
2023/05/03 01:30:12;;;;;;;3.15;1.25;;;;;;;11.73;41.67;94178.19;5124409;28;20384;-81
2023/05/03 01:32:44;;;;;;;3.95;1.77;;;;;;;11.71;41.86;94177.72;5124366;28;20023;-81
2023/05/03 01:35:24;;;;;;;3.47;1.80;;;;;;;11.73;41.86;94191.53;5124548;28;20076;-79
2023/05/03 01:37:51;;;;;;;5.78;1.95;;;;;;;11.74;41.75;94187.75;5106314;28;20019;-80
2023/05/03 01:40:18;;;;;;;2.88;1.63;;;;;;;11.76;41.69;94177.53;5123790;28;20031;-82
2023/05/03 01:42:45;;;;;;;3.88;1.55;;;;;;;11.74;41.62;94182.41;5124025;28;20275;-81
2023/05/03 01:45:14;;;;;;;7.32;2.42;;;;;;;11.74;41.42;94176.28;5124159;28;20024;-81
2023/05/03 01:47:40;;;;;;;6.00;2.00;;;;;;;11.73;41.35;94170.19;5123876;28;20341;-81
2023/05/03 01:50:06;;;;;;;9.43;1.58;;;;;;;11.70;41.14;94160.09;5124203;28;20024;-81
2023/05/03 01:52:32;;;;;;;6.55;1.77;;;;;;;11.73;41.50;94162.16;5105814;28;20217;-81
2023/05/03 01:54:58;;;;;;;6.20;2.03;;;;;;;11.74;41.49;94155.72;5124010;28;20026;-81
2023/05/03 01:57:24;;;;;;;6.70;1.58;;;;;;;11.71;41.44;94140.31;5105703;28;20052;-81
2023/05/03 01:59:49;;;;;;;5.35;1.40;;;;;;;11.62;41.85;94142.19;5123596;28;20035;-81
2023/05/03 02:02:15;;;;;;;4.80;1.83;;;;;;;11.59;41.77;94137.50;5123845;28;20296;-81
2023/05/03 02:04:41;;;;;;;6.25;1.77;;;;;;;11.54;41.71;94142.97;5123728;28;20090;-80
2023/05/03 02:07:07;;;;;;;5.57;1.70;;;;;;;11.52;41.73;94132.63;5123811;28;20023;-81
2023/05/03 02:09:32;;;;;;;4.20;1.58;;;;;;;11.44;42.05;94125.38;5123749;28;20023;-81
2023/05/03 02:11:58;;;;;;;5.72;1.80;;;;;;;11.40;42.12;94119.09;5105271;28;20114;-81
2023/05/03 02:14:23;;;;;;;2.90;1.38;;;;;;;11.30;42.48;94116.72;5123720;28;20019;-81
2023/05/03 02:16:49;;;;;;;3.55;1.65;;;;;;;11.27;42.67;94104.75;5105714;28;20062;-81
2023/05/03 02:19:15;;;;;;;4.30;1.70;;;;;;;11.28;42.86;94095.69;5123629;28;20023;-81
2023/05/03 02:21:40;;;;;;;4.28;1.73;;;;;;;11.26;42.92;94097.88;5123610;28;20310;-80
2023/05/03 02:24:06;;;;;;;3.88;1.77;;;;;;;11.16;42.95;94096.28;5105293;28;20042;-80
2023/05/03 02:26:31;;;;;;;12.98;2.10;;;;;;;11.18;43.09;94104.75;5123544;28;20034;-80
2023/05/03 02:28:57;;;;;;;8.95;1.70;;;;;;;11.12;42.87;94099.88;5123423;28;20027;-80
2023/05/03 02:31:23;;;;;;;5.47;1.92;;;;;;;11.12;42.60;94091.88;5105267;28;20321;-80
2023/05/03 02:33:49;;;;;;;12.02;3.80;;;;;;;11.12;42.91;94094.53;5123735;28;20030;-80
2023/05/03 02:36:15;;;;;;;5.25;2.60;;;;;;;11.14;42.95;94092.34;5123352;28;20023;-81
2023/05/03 02:38:40;;;;;;;5.10;2.25;;;;;;;11.12;42.78;94097.22;5123463;28;20023;-81
2023/05/03 02:41:06;;;;;;;3.85;1.80;;;;;;;11.03;43.26;94102.50;5123330;28;20076;-80
2023/05/03 02:43:31;;;;;;;4.40;1.60;;;;;;;11.03;43.58;94105.97;5123341;28;20027;-82
2023/05/03 02:45:57;;;;;;;3.80;1.90;;;;;;;10.99;43.63;94105.03;5123448;28;20031;-82
2023/05/03 02:48:23;;;;;;;4.18;1.60;;;;;;;10.92;43.69;94102.00;5123549;28;20034;-82
2023/05/03 02:50:48;;;;;;;5.53;2.10;;;;;;;10.96;43.52;94108.28;5123408;28;20023;-83
2023/05/03 02:53:13;;;;;;;3.92;1.95;;;;;;;10.98;43.35;94108.78;5123444;28;20036;-79
2023/05/03 02:55:39;;;;;;;12.88;1.77;;;;;;;11.03;43.04;94115.84;5122993;28;20024;-80
2023/05/03 02:58:05;;;;;;;8.07;2.38;;;;;;;11.03;43.60;94110.50;5123039;28;20270;-80
2023/05/03 03:00:30;;;;;;;5.78;2.03;;;;;;;11.03;43.71;94116.66;5123289;28;20023;-80
2023/05/03 03:02:56;;;;;;;3.25;1.80;;;;;;;11.03;43.58;94121.97;5123036;28;20110;-80
2023/05/03 03:05:21;;;;;;;9.95;2.50;;;;;;;11.01;43.87;94124.16;5123149;28;20023;-80
2023/05/03 03:07:47;;;;;;;5.75;1.75;;;;;;;10.96;43.91;94116.28;5123049;28;20019;-80
2023/05/03 03:10:12;;;;;;;4.82;1.60;;;;;;;11.00;43.97;94117.25;5123305;28;20030;-81
2023/05/03 03:12:38;;;;;;;7.88;1.85;;;;;;;11.00;44.24;94116.47;5125517;28;20068;-81
2023/05/03 03:15:04;;;;;;;3.63;1.90;;;;;;;11.04;44.06;94112.09;5127347;28;20015;-81
2023/05/03 03:17:30;;;;;;;8.55;3.45;;;;;;;11.04;43.67;94118.22;5126977;28;20019;-82
2023/05/03 03:19:57;;;;;;;7.00;2.10;;;;;;;11.09;43.87;94119.94;5127159;28;20308;-82
2023/05/03 03:22:24;;;;;;;6.20;2.00;;;;;;;11.09;43.63;94119.16;5127045;28;20020;-81
2023/05/03 03:24:55;;;;;;;7.88;1.70;;;;;;;11.10;43.46;94115.41;5127037;28;20027;-81
2023/05/03 03:27:22;;;;;;;5.80;1.92;;;;;;;11.16;43.42;94116.84;5127037;28;20047;-81
2023/05/03 03:29:47;;;;;;;9.45;2.03;;;;;;;11.22;43.41;94118.25;5108604;28;20019;-81
2023/05/03 03:32:12;;;;;;;3.42;2.00;;;;;;;11.22;43.16;94139.59;5126786;28;21358;-81
2023/05/03 03:34:38;;;;;;;11.15;2.25;;;;;;;11.19;43.31;94134.88;5126904;28;20016;-80
2023/05/03 03:37:04;;;;;;;5.55;1.75;;;;;;;11.22;43.23;94136.94;5126907;28;20019;-81
2023/05/03 03:39:29;;;;;;;6.05;1.92;;;;;;;11.18;43.32;94136.78;5126868;28;20031;-81
2023/05/03 03:41:55;;;;;;;9.10;2.00;;;;;;;11.21;42.97;94138.84;5126279;28;20023;-80
2023/05/03 03:44:20;;;;;;;5.65;2.17;;;;;;;11.26;42.87;94145.91;5126641;28;20140;-80
2023/05/03 03:46:46;;;;;;;6.78;1.90;;;;;;;11.22;42.87;94163.63;5126681;28;20087;-80
2023/05/03 03:49:11;;;;;;;6.65;2.40;;;;;;;11.19;42.87;94165.03;5126655;28;20437;-78
2023/05/03 03:51:37;;;;;;;4.95;2.47;;;;;;;11.20;42.81;94163.16;5126370;28;20301;-78
2023/05/03 03:54:04;;;;;;;5.65;2.08;;;;;;;11.23;42.73;94143.84;5126308;28;20039;-78
2023/05/03 03:56:29;;;;;;;10.75;2.38;;;;;;;11.12;42.94;94161.22;5126397;28;20016;-79
2023/05/03 03:58:55;;;;;;;6.88;1.95;;;;;;;11.14;43.30;94159.03;5126402;28;20033;-78
2023/05/03 04:01:21;;;;;;;3.95;2.10;;;;;;;11.17;43.11;94174.41;5126203;28;20011;-79
2023/05/03 04:03:46;;;;;;;7.30;2.10;;;;;;;11.11;43.08;94170.31;5107641;28;20092;-80
2023/05/03 04:06:12;;;;;;;10.68;2.35;;;;;;;11.08;43.15;94166.41;5126209;28;20222;-79
2023/05/03 04:08:37;;;;;;;8.13;3.28;;;;;;;11.03;43.80;94167.31;5125926;28;20159;-79
2023/05/03 04:11:08;;;;;;;6.47;2.70;;;;;;;11.03;43.73;94174.50;5125861;28;20015;-78
2023/05/03 04:13:33;;;;;;;8.73;2.92;;;;;;;11.02;43.69;94179.06;5125877;28;20029;-80
2023/05/03 04:16:00;;;;;;;6.63;2.35;;;;;;;10.99;44.04;94194.91;5125548;28;20317;-80
2023/05/03 04:18:25;;;;;;;4.82;2.30;;;;;;;10.98;43.83;94191.44;5125892;28;20046;-79
2023/05/03 04:20:51;;;;;;;10.20;2.60;;;;;;;10.99;43.98;94201.03;5126118;28;20026;-80
2023/05/03 04:23:20;;;;;;;21.20;3.00;;;;;;;10.97;44.22;94205.09;5125857;28;20019;-80
2023/05/03 04:25:47;;;;;;;5.57;2.03;;;;;;;11.02;44.06;94194.28;5125565;28;20221;-80
2023/05/03 04:28:15;;;;;;;11.23;2.47;;;;;;;11.02;44.11;94200.41;5125573;28;20027;-80
2023/05/03 04:30:43;;;;;;;8.13;1.98;;;;;;;11.02;44.25;94194.28;5141659;27;20019;-81
2023/05/03 04:33:08;;;;;;;9.25;3.42;;;;;;;10.91;44.41;94207.13;5125586;28;20195;-81
2023/05/03 04:35:34;;;;;;;6.03;2.40;;;;;;;10.93;44.40;94204.13;5106907;28;20347;-79
2023/05/03 04:38:01;;;;;;;18.20;2.95;;;;;;;11.01;44.43;94209.53;5125691;28;20072;-79
2023/05/03 04:40:27;;;;;;;16.52;2.58;;;;;;;11.01;44.16;94220.19;5125446;28;20072;-80
2023/05/03 04:42:53;;;;;;;10.38;2.55;;;;;;;11.04;43.98;94227.56;5125719;28;20313;-80
2023/05/03 04:45:22;;;;;;;10.30;2.58;;;;;;;11.01;44.04;94222.84;5125641;28;20035;-80
2023/05/03 04:47:48;;;;;;;9.10;2.83;;;;;;;11.02;44.17;94232.41;5125319;28;20024;-80
2023/05/03 04:50:14;;;;;;;8.95;2.88;;;;;;;11.04;44.42;94240.13;5124704;28;20336;-80
2023/05/03 04:52:42;;;;;;;17.23;2.78;;;;;;;11.04;44.39;94251.56;5106936;28;20059;-80
2023/05/03 04:55:08;;;;;;;7.32;2.63;;;;;;;11.03;44.46;94236.69;5125031;28;20034;-80
2023/05/03 04:57:33;;;;;;;8.18;2.70;;;;;;;11.06;44.60;94242.50;5125097;28;20016;-80
2023/05/03 04:59:59;;;;;;;10.65;3.05;;;;;;;11.12;44.61;94267.94;5124604;28;20026;-80
2023/05/03 05:02:25;;;;;;;13.25;3.15;;;;;;;11.11;46.58;94250.34;5124652;28;20035;-81
2023/05/03 05:04:51;;;;;;;7.32;2.80;;;;;;;11.19;47.87;94281.63;5125287;28;20285;-79
2023/05/03 05:07:17;;;;;;;9.00;3.22;;;;;;;11.18;50.31;94267.50;5124922;28;20031;-80
2023/05/03 05:09:43;;;;;;;5.25;2.78;;;;;;;11.21;50.66;94276.75;5124820;28;20024;-80
2023/05/03 05:12:08;;;;;;;4.22;2.35;;;;;;;11.14;50.18;94271.09;5124871;28;20023;-80
2023/05/03 05:14:34;;;;;;;9.90;2.60;;;;;;;11.14;50.71;94271.09;5124420;28;20087;-78
2023/05/03 05:16:59;;;;;;;11.82;2.92;;;;;;;11.09;49.57;94272.00;5124652;28;20036;-78
2023/05/03 05:19:25;;;;;;;7.78;2.25;;;;;;;11.11;48.83;94283.13;5106517;28;20065;-78
2023/05/03 05:21:51;;;;;;;8.88;2.78;;;;;;;11.10;49.30;94283.47;5124639;28;20305;-79
2023/05/03 05:24:19;;;;;;;5.82;2.63;;;;;;;11.09;50.05;94284.53;5124377;28;20026;-79
2023/05/03 05:26:45;;;;;;;7.32;4.03;;;;;;;11.12;50.27;94286.63;5124581;28;20065;-79
2023/05/03 05:29:10;;;;;;;7.45;2.47;;;;;;;11.14;49.74;94287.09;5106459;28;20059;-81
2023/05/03 05:31:36;;;;;;;13.07;3.72;;;;;;;11.21;49.63;94293.59;5124408;28;20027;-82
2023/05/03 05:34:02;;;;;;;8.65;3.70;;;;;;;11.26;49.45;94297.22;5124126;28;20019;-82
2023/05/03 05:36:29;;;;;;;8.63;3.10;;;;;;;11.27;49.73;94304.88;5124304;28;20027;-82
2023/05/03 05:38:55;;;;;;;8.68;2.55;;;;;;;11.30;49.27;94295.50;5124350;28;20061;-79
2023/05/03 05:41:20;;;;;;;6.25;3.70;;;;;;;11.36;48.42;94305.72;5124131;28;20019;-78
2023/05/03 05:43:46;;;;;;;6.32;2.33;;;;;;;11.36;48.81;94300.41;5124240;28;20020;-79
2023/05/03 05:46:11;;;;;;;7.07;2.47;;;;;;;11.39;48.74;94291.75;5124107;28;20078;-80
2023/05/03 05:48:38;;;;;;;8.55;2.70;;;;;;;11.40;49.21;94282.69;5123916;28;20020;-80
2023/05/03 05:51:03;;;;;;;4.63;2.47;;;;;;;11.44;51.13;94290.88;5124425;28;20023;-80
2023/05/03 05:53:29;;;;;;;9.30;2.90;;;;;;;11.48;52.39;94297.16;5106177;28;20213;-81
2023/05/03 05:55:54;;;;;;;6.90;2.45;;;;;;;11.57;52.20;94286.50;5124241;28;20019;-81
2023/05/03 05:58:20;;;;;;;9.52;3.47;;;;;;;11.68;51.41;94285.13;5124067;28;20321;-82
2023/05/03 06:00:47;;;;;;;11.55;2.70;;;;;;;11.70;51.95;94293.59;5123746;28;20191;-81
2023/05/03 06:03:13;;;;;;;9.85;3.13;;;;;;;11.77;51.57;94301.97;5123593;28;20069;-81
2023/05/03 06:05:39;;;;;;;5.78;2.35;;;;;;;11.80;49.42;94298.66;5123774;28;20058;-79
2023/05/03 06:08:05;;;;;;;16.75;3.95;;;;;;;11.83;49.19;94295.41;5123390;28;20023;-78
2023/05/03 06:10:30;;;;;;;10.88;3.65;;;;;;;11.90;48.63;94296.84;5123401;28;20098;-78
2023/05/03 06:12:56;;;;;;;8.82;2.88;;;;;;;11.90;49.52;94292.28;5105357;28;20310;-77
2023/05/03 06:15:21;;;;;;;18.70;3.67;;;;;;;11.98;47.80;94294.19;5123666;28;20091;-76
2023/05/03 06:17:47;;;;;;;8.68;2.88;;;;;;;12.10;48.15;94290.94;5105263;28;20023;-77
2023/05/03 06:20:12;;;;;;;10.15;3.67;;;;;;;12.11;48.71;94292.53;5123415;28;20023;-77
2023/05/03 06:22:38;;;;;;;6.07;2.80;;;;;;;12.08;49.48;94295.81;5123301;28;20023;-77
2023/05/03 06:25:04;;;;;;;12.35;2.78;;;;;;;12.07;50.13;94301.44;5123269;28;20028;-78
2023/05/03 06:27:29;;;;;;;8.18;2.83;;;;;;;12.10;50.42;94290.94;5123567;28;20091;-78
2023/05/03 06:29:55;;;;;;;8.10;2.70;;;;;;;12.17;50.51;94285.94;5123541;28;20020;-78
2023/05/03 06:32:22;;;;;;;8.30;3.40;;;;;;;12.25;50.48;94281.66;5123326;28;20042;-79
2023/05/03 06:34:48;;;;;;;7.65;3.08;;;;;;;12.29;50.08;94271.16;5122850;28;20016;-79
2023/05/03 06:37:14;;;;;;;8.93;2.60;;;;;;;12.31;49.11;94264.38;5121951;28;20230;-78
2023/05/03 06:39:41;;;;;;;6.82;3.30;;;;;;;12.24;49.40;94254.16;5121678;28;20046;-78
2023/05/03 06:42:07;;;;;;;13.43;2.72;;;;;;;12.22;49.34;94247.56;5121480;28;20299;-79
2023/05/03 06:44:35;;;;;;;5.45;2.78;;;;;;;12.21;49.57;94249.47;5103402;28;20023;-78
2023/05/03 06:47:01;;;;;;;7.00;3.05;;;;;;;12.17;49.73;94248.53;5124549;28;20020;-85
2023/05/03 06:49:26;;;;;;;7.32;2.65;;;;;;;12.15;49.32;94234.69;5127558;28;20041;-90
2023/05/03 06:51:52;;;;;;;6.20;2.53;;;;;;;12.17;49.27;94235.16;5128313;28;20133;-83
2023/05/03 06:54:20;;;;;;;8.70;2.65;;;;;;;12.16;49.37;94230.13;5126650;28;20026;-83
2023/05/03 06:56:45;;;;;;;14.18;2.85;;;;;;;12.18;49.25;94247.41;5107693;28;20194;-83
2023/05/03 06:59:15;;;;;;;13.40;2.97;;;;;;;12.23;49.39;94239.25;5126428;28;20105;-83
2023/05/03 07:01:40;;;;;;;6.20;2.60;;;;;;;12.27;49.12;94241.28;5125544;28;20091;-83
2023/05/03 07:04:06;;;;;;;12.35;3.70;;;;;;;12.24;48.82;94229.34;5125955;28;20032;-83
2023/05/03 07:06:34;;;;;;;10.55;3.03;;;;;;;12.24;48.67;94238.13;5126011;28;20023;-83
2023/05/03 07:09:00;;;;;;;9.25;3.22;;;;;;;12.33;48.37;94240.03;5126990;28;20094;-82
2023/05/03 07:11:25;;;;;;;10.10;3.20;;;;;;;12.42;48.09;94241.59;5143471;27;20068;-81
2023/05/03 07:13:54;;;;;;;5.72;2.47;;;;;;;12.49;47.74;94249.13;5127304;28;20023;-83
2023/05/03 07:16:20;;;;;;;6.93;3.03;;;;;;;12.60;47.89;94246.94;5127531;28;20035;-83
2023/05/03 07:18:47;;;;;;;7.90;2.83;;;;;;;12.64;47.63;94237.97;5127448;28;20026;-83
2023/05/03 07:21:13;;;;;;;9.95;3.45;;;;;;;12.72;47.38;94239.06;5127141;28;20055;-83
2023/05/03 07:23:39;;;;;;;8.70;3.00;;;;;;;12.75;46.96;94246.44;5127423;28;20103;-83
2023/05/03 07:26:05;;;;;;;4.65;2.42;;;;;;;12.85;46.29;94248.78;5127177;28;20318;-83
2023/05/03 07:28:31;;;;;;;33.28;4.10;;;;;;;12.93;46.18;94243.75;5127064;28;20097;-83
2023/05/03 07:30:56;;;;;;;7.10;2.63;;;;;;;13.02;46.23;94239.94;5109210;28;20114;-82
2023/05/03 07:33:22;;;;;;;8.95;2.90;;;;;;;13.03;46.42;94246.88;5127377;28;20050;-83
2023/05/03 07:35:47;;;;;;;11.95;3.00;;;;;;;13.00;46.86;94238.69;5127449;28;20031;-82
2023/05/03 07:38:13;;;;;;;13.73;2.97;;;;;;;13.10;46.85;94242.94;5126886;28;20100;-83
2023/05/03 07:40:40;;;;;;;9.25;2.83;;;;;;;13.16;46.75;94242.44;5126658;28;20042;-82
2023/05/03 07:43:06;;;;;;;5.82;3.00;;;;;;;13.20;47.00;94239.91;5127097;28;20229;-83
2023/05/03 07:45:31;;;;;;;7.20;3.13;;;;;;;13.21;46.75;94244.16;5127263;28;20035;-83
2023/05/03 07:47:57;;;;;;;10.38;3.15;;;;;;;13.29;47.00;94246.06;5126811;28;20019;-83
2023/05/03 07:50:23;;;;;;;13.88;3.83;;;;;;;13.36;46.65;94249.00;5127161;28;20026;-83
2023/05/03 07:52:51;;;;;;;12.25;3.08;;;;;;;13.43;46.89;94260.03;5127174;28;20024;-83
2023/05/03 07:55:18;;;;;;;12.55;2.92;;;;;;;13.57;46.35;94259.00;5128742;28;20027;-83
2023/05/03 07:57:44;;;;;;;6.38;2.25;;;;;;;13.72;46.02;94257.69;5127841;28;20310;-83
2023/05/03 08:00:11;;;;;;;8.10;3.42;;;;;;;13.89;45.51;94259.50;5128414;28;20019;-83
2023/05/03 08:02:37;;;;;;;6.72;2.58;;;;;;;14.03;45.26;94270.75;5127969;28;20057;-83
2023/05/03 08:05:06;;;;;;;13.35;2.78;;;;;;;14.04;45.33;94273.13;5127381;28;20325;-83
2023/05/03 08:07:31;;;;;;;13.98;3.13;;;;;;;14.17;45.49;94262.50;5128941;28;20024;-83
2023/05/03 08:09:57;;;;;;;9.00;5.05;;;;;;;14.36;45.25;94267.41;5109347;28;20194;-82
2023/05/03 08:12:26;;;;;;;7.93;3.17;;;;;;;14.51;45.46;94269.50;5126535;28;20318;-83
2023/05/03 08:14:53;;;;;;;10.32;2.90;;;;;;;14.59;45.22;94267.88;5126564;28;20031;-83
2023/05/03 08:17:18;;;;;;;19.67;4.45;;;;;;;14.67;45.11;94266.25;5126803;28;20023;-84
2023/05/03 08:19:44;;;;;;;9.15;3.50;;;;;;;14.73;44.67;94272.97;5126337;28;20031;-83
2023/05/03 08:22:11;;;;;;;7.95;2.97;;;;;;;14.76;44.62;94265.06;5126425;28;20019;-83
2023/05/03 08:24:41;;;;;;;13.27;3.22;;;;;;;14.81;44.93;94269.44;5126363;28;20190;-84
2023/05/03 08:27:08;;;;;;;16.20;3.03;;;;;;;14.86;44.55;94279.97;5126469;28;20030;-83
2023/05/03 08:29:36;;;;;;;10.27;3.30;;;;;;;14.98;44.01;94287.28;5126218;28;20090;-82
2023/05/03 08:32:04;;;;;;;5.72;3.20;;;;;;;15.21;43.70;94285.03;5126361;28;20099;-83
2023/05/03 08:34:30;;;;;;;10.55;3.03;;;;;;;15.45;44.14;94295.03;5126153;28;20071;-83
2023/05/03 08:36:56;;;;;;;8.50;3.08;;;;;;;15.64;43.35;94291.81;5126126;28;20065;-82
2023/05/03 08:39:25;;;;;;;8.95;3.28;;;;;;;15.81;43.16;94274.72;5107861;28;20199;-82
2023/05/03 08:41:52;;;;;;;5.43;2.78;;;;;;;15.93;43.22;94276.63;5126065;28;20027;-83
2023/05/03 08:44:22;;;;;;;6.55;2.80;;;;;;;16.04;42.91;94267.00;5125407;28;20027;-82
2023/05/03 08:46:48;;;;;;;4.80;2.60;;;;;;;16.05;42.34;94268.56;5125509;28;20027;-83
2023/05/03 08:49:16;;;;;;;6.50;3.08;;;;;;;16.16;42.28;94274.25;5125713;28;20032;-82
2023/05/03 08:51:44;;;;;;;6.28;2.83;;;;;;;16.22;42.25;94271.03;5125774;28;20221;-82
2023/05/03 08:54:10;;;;;;;5.88;2.58;;;;;;;16.34;41.95;94282.88;5125112;28;20086;-83
2023/05/03 08:56:40;;;;;;;6.57;2.70;;;;;;;16.36;42.07;94286.78;5124965;28;20277;-82
2023/05/03 08:59:07;;;;;;;8.43;2.42;;;;;;;16.47;42.08;94284.44;5125306;28;20103;-83
2023/05/03 09:01:35;;;;;;;6.75;2.92;;;;;;;16.61;41.36;94289.44;5125315;28;20198;-83
2023/05/03 09:04:02;;;;;;;6.75;2.60;;;;;;;16.63;41.49;94308.72;5125056;28;20027;-83
2023/05/03 09:06:27;;;;;;;9.27;2.80;;;;;;;16.62;41.43;94310.59;5125141;28;20054;-83
2023/05/03 09:08:54;;;;;;;6.30;2.53;;;;;;;16.69;41.63;94293.09;5125121;28;20217;-83
2023/05/03 09:11:24;;;;;;;9.45;2.47;;;;;;;16.81;41.47;94285.81;5124661;28;20069;-83
2023/05/03 09:13:51;;;;;;;4.90;2.85;;;;;;;17.00;41.31;94281.72;5125479;28;20145;-83
2023/05/03 09:16:27;;;;;;;4.50;2.50;;;;;;;17.21;40.99;94278.81;5125227;28;20023;-83
2023/05/03 09:19:00;;;;;;;7.72;2.50;;;;;;;17.41;40.57;94272.41;5125365;28;20043;-83
2023/05/03 09:21:27;;;;;;;8.32;3.38;;;;;;;17.59;39.95;94280.16;5125193;28;20020;-81
2023/05/03 09:23:52;;;;;;;4.38;2.60;;;;;;;17.73;39.59;94274.34;5124695;28;20027;-83
2023/05/03 09:26:34;;;;;;;5.20;2.90;;;;;;;17.96;39.99;94269.16;5125182;28;20083;-83
2023/05/03 09:29:01;;;;;;;10.18;2.65;;;;;;;18.09;39.11;94277.91;5124884;28;20026;-82
2023/05/03 09:31:32;;;;;;;9.00;2.88;;;;;;;18.25;38.85;94270.56;5124906;28;20433;-82
2023/05/03 09:33:57;;;;;;;6.32;2.72;;;;;;;18.42;38.43;94259.41;5124905;28;20087;-83
2023/05/03 09:36:24;;;;;;;8.80;2.90;;;;;;;18.53;37.94;94254.22;5124485;28;20019;-83
2023/05/03 09:38:51;;;;;;;8.27;2.63;;;;;;;18.60;37.83;94251.69;5124693;28;20023;-83
2023/05/03 09:41:29;;;;;;;8.23;3.17;;;;;;;18.65;37.91;94240.59;5124295;28;20034;-82
2023/05/03 09:44:01;;;;;;;6.88;2.72;;;;;;;18.72;38.26;94245.34;5124244;28;20344;-83
2023/05/03 09:46:28;;;;;;;7.18;2.90;;;;;;;18.85;38.76;94254.13;5123986;28;20069;-80
2023/05/03 09:48:55;;;;;;;6.65;2.33;;;;;;;18.93;37.77;94233.44;5124294;28;20313;-82
2023/05/03 09:51:22;;;;;;;5.28;2.50;;;;;;;18.96;37.98;94235.44;5124238;28;20213;-83
2023/05/03 09:53:48;;;;;;;8.55;2.38;;;;;;;19.11;37.74;94231.88;5124286;28;20038;-83
2023/05/03 09:56:15;;;;;;;4.57;2.67;;;;;;;19.19;38.01;94225.47;5124021;28;20398;-82
2023/05/03 09:58:42;;;;;;;4.50;2.80;;;;;;;19.38;37.53;94227.31;5124019;28;20023;-82
2023/05/03 10:01:09;;;;;;;7.07;2.10;;;;;;;19.44;36.18;94225.88;5124112;28;20024;-82
2023/05/03 10:03:42;;;;;;;7.55;2.05;;;;;;;19.45;36.96;94222.03;5123928;28;20055;-82
2023/05/03 10:06:20;;;;;;;6.82;2.80;;;;;;;19.56;37.12;94216.03;5105646;28;20266;-82
2023/05/03 10:08:53;;;;;;;5.05;2.42;;;;;;;19.68;36.18;94228.56;5124177;28;20047;-82
2023/05/03 10:11:23;;;;;;;4.57;2.35;;;;;;;19.72;36.04;94234.84;5124203;28;20030;-82
2023/05/03 10:13:49;;;;;;;5.72;2.10;;;;;;;19.75;36.03;94221.41;5123554;28;20031;-82
2023/05/03 10:16:24;;;;;;;5.28;2.38;;;;;;;19.76;37.02;94225.69;5124373;28;20289;-82
2023/05/03 10:19:02;;;;;;;5.47;2.70;;;;;;;19.87;37.07;94211.53;5124113;28;20048;-83
2023/05/03 10:21:47;;;;;;;4.50;2.47;;;;;;;19.89;36.54;94207.31;5124119;28;20023;-83
2023/05/03 10:24:15;;;;;;;7.78;2.65;;;;;;;19.95;36.87;94199.69;5123567;28;20051;-83
2023/05/03 10:26:46;;;;;;;4.53;2.38;;;;;;;20.08;36.45;94190.19;5123985;28;20061;-83
2023/05/03 10:29:33;;;;;;;7.63;2.73;;;;;;;20.15;35.79;94187.59;5123912;28;20270;-83
2023/05/03 10:32:24;;;;;;;6.85;2.72;;;;;;;20.23;36.13;94189.25;5123456;28;20043;-82
2023/05/03 10:34:57;;;;;;;8.38;3.40;;;;;;;20.34;35.69;94188.63;5123694;28;20308;-83
2023/05/03 10:37:25;;;;;;;9.88;3.00;;;;;;;20.41;36.50;94184.09;5123229;28;20080;-82
2023/05/03 10:39:52;;;;;;;11.07;2.40;;;;;;;20.55;35.55;94179.97;5123835;28;20026;-83
2023/05/03 10:42:21;;;;;;;7.90;2.60;;;;;;;20.49;36.09;94184.94;5123531;28;20314;-83
2023/05/03 10:44:54;;;;;;;10.57;2.78;;;;;;;20.59;35.49;94188.94;5123369;28;20058;-83
2023/05/03 10:47:25;;;;;;;11.27;4.07;;;;;;;20.68;34.90;94184.03;5105380;28;20043;-83
2023/05/03 10:50:15;;;;;;;6.00;2.13;;;;;;;20.70;35.07;94184.44;5123495;28;20066;-83
2023/05/03 10:52:40;;;;;;;10.48;2.40;;;;;;;20.61;35.40;94192.84;5123006;28;20214;-82
2023/05/03 10:55:10;;;;;;;11.02;2.50;;;;;;;20.52;35.69;94186.13;5123350;28;20011;-83
2023/05/03 10:57:37;;;;;;;8.05;2.85;;;;;;;20.36;35.83;94194.44;5105471;28;20033;-82
2023/05/03 11:00:28;;;;;;;7.85;2.78;;;;;;;20.13;35.60;94189.88;5123578;28;20019;-83
2023/05/03 11:03:18;;;;;;;7.20;2.70;;;;;;;19.89;36.39;94185.69;5123117;28;20065;-83
2023/05/03 11:05:46;;;;;;;7.75;2.17;;;;;;;19.65;36.25;94173.31;5123280;28;20032;-83
2023/05/03 11:08:13;;;;;;;13.90;2.10;;;;;;;19.50;36.83;94183.13;5123382;28;20076;-83
2023/05/03 11:10:40;;;;;;;5.70;3.05;;;;;;;19.40;37.61;94189.13;5123356;28;20032;-83
2023/05/03 11:13:06;;;;;;;7.57;2.22;;;;;;;19.35;37.75;94176.69;5123567;28;20024;-82
2023/05/03 11:15:32;;;;;;;6.38;2.40;;;;;;;19.36;37.68;94172.84;5123643;28;20026;-83
2023/05/03 11:17:57;;;;;;;5.20;2.22;;;;;;;19.33;37.78;94170.84;5123267;28;20025;-83
2023/05/03 11:20:23;;;;;;;8.07;2.47;;;;;;;19.45;37.62;94173.38;5123478;28;20061;-82
2023/05/03 11:22:49;;;;;;;5.85;2.75;;;;;;;19.50;37.24;94161.50;5123081;28;20080;-83
2023/05/03 11:25:14;;;;;;;10.32;2.80;;;;;;;19.56;37.98;94145.72;5123514;28;20345;-83
2023/05/03 11:27:41;;;;;;;4.50;2.20;;;;;;;19.51;37.79;94148.75;5123461;28;20024;-83
2023/05/03 11:30:07;;;;;;;7.15;2.30;;;;;;;19.53;37.47;94157.28;5123418;28;20240;-83
2023/05/03 11:32:36;;;;;;;14.00;2.33;;;;;;;19.53;37.69;94154.56;5124529;28;20042;-83